createdAt,value
2022-07-26T00:00:16.808Z,14.84
2022-07-26T00:02:47.416Z,14.89
2022-07-26T00:05:17.122Z,14.92
2022-07-26T00:07:45.562Z,14.91
2022-07-26T00:10:13.544Z,14.90
2022-07-26T00:12:40.621Z,14.95
2022-07-26T00:15:11.594Z,15.02
2022-07-26T00:17:39.377Z,15.04
2022-07-26T00:20:07.832Z,15.02
2022-07-26T00:22:34.965Z,15.04
2022-07-26T00:25:07.949Z,15.05
2022-07-26T00:27:38.991Z,14.98
2022-07-26T00:30:08.828Z,14.97
2022-07-26T00:32:36.773Z,14.95
2022-07-26T00:35:04.894Z,14.97
2022-07-26T00:37:32.218Z,15.00
2022-07-26T00:39:59.370Z,14.97
2022-07-26T00:42:26.249Z,15.00
2022-07-26T00:44:53.165Z,14.93
2022-07-26T00:47:20.169Z,14.93
2022-07-26T00:49:47.092Z,14.95
2022-07-26T00:52:14.485Z,14.94
2022-07-26T00:54:46.756Z,14.89
2022-07-26T00:57:15.275Z,14.88
2022-07-26T00:59:43.081Z,14.88
2022-07-26T01:02:10.786Z,14.87
2022-07-26T01:04:37.933Z,14.89
2022-07-26T01:07:15.407Z,14.86
2022-07-26T01:09:43.647Z,14.92
2022-07-26T01:12:11.449Z,14.85
2022-07-26T01:14:38.684Z,14.92
2022-07-26T01:17:05.662Z,14.87
2022-07-26T01:19:32.619Z,14.83
2022-07-26T01:21:59.865Z,14.82
2022-07-26T01:24:26.713Z,14.83
2022-07-26T01:26:55.905Z,14.86
2022-07-26T01:29:24.445Z,14.86
2022-07-26T01:32:04.207Z,14.83
2022-07-26T01:34:31.252Z,14.87
2022-07-26T01:36:58.188Z,14.84
2022-07-26T01:39:25.033Z,14.85
2022-07-26T01:41:52.264Z,14.82
2022-07-26T01:44:19.145Z,14.85
2022-07-26T01:46:45.962Z,14.83
2022-07-26T01:49:12.806Z,14.81
2022-07-26T01:51:39.658Z,14.80
2022-07-26T01:54:07.203Z,14.77
2022-07-26T01:56:34.255Z,14.77
2022-07-26T01:59:01.513Z,14.83
2022-07-26T02:01:39.638Z,14.83
2022-07-26T02:04:29.046Z,14.81
2022-07-26T02:06:56.313Z,14.78
2022-07-26T02:09:23.172Z,14.82
2022-07-26T02:11:52.856Z,14.86
2022-07-26T02:14:25.758Z,14.85
2022-07-26T02:17:00.171Z,14.66
2022-07-26T02:19:31.388Z,14.77
2022-07-26T02:21:59.953Z,14.80
2022-07-26T02:24:29.233Z,14.77
2022-07-26T02:27:01.198Z,14.77
2022-07-26T02:29:28.946Z,14.74
2022-07-26T02:31:57.074Z,14.74
2022-07-26T02:34:24.691Z,14.74
2022-07-26T02:36:52.126Z,14.71
2022-07-26T02:39:19.657Z,14.71
2022-07-26T02:41:46.591Z,14.65
2022-07-26T02:44:13.515Z,14.59
2022-07-26T02:46:40.774Z,14.62
2022-07-26T02:49:07.718Z,14.58
2022-07-26T02:51:34.658Z,14.50
2022-07-26T02:54:01.535Z,14.51
2022-07-26T02:56:28.390Z,14.51
2022-07-26T02:58:55.506Z,14.47
2022-07-26T03:01:22.445Z,14.48
2022-07-26T03:03:51.129Z,14.47
2022-07-26T03:06:19.741Z,14.48
2022-07-26T03:08:48.578Z,14.51
2022-07-26T03:11:15.732Z,14.51
2022-07-26T03:13:42.585Z,14.41
2022-07-26T03:16:09.544Z,14.33
2022-07-26T03:18:36.577Z,14.36
2022-07-26T03:21:04.177Z,14.33
2022-07-26T03:23:33.729Z,14.29
2022-07-26T03:26:02.209Z,14.26
2022-07-26T03:28:33.655Z,14.28
2022-07-26T03:31:00.767Z,14.22
2022-07-26T03:33:28.104Z,14.19
2022-07-26T03:35:54.964Z,14.14
2022-07-26T03:38:21.995Z,14.16
2022-07-26T03:40:49.234Z,14.13
2022-07-26T03:43:17.405Z,14.09
2022-07-26T03:45:47.033Z,14.05
2022-07-26T03:48:13.925Z,14.03
2022-07-26T03:50:41.555Z,14.07
2022-07-26T03:53:08.534Z,14.06
2022-07-26T03:55:53.859Z,14.08
2022-07-26T03:58:20.777Z,14.01
2022-07-26T04:00:47.882Z,13.98
2022-07-26T04:03:14.716Z,14.01
2022-07-26T04:05:48.562Z,14.00
2022-07-26T04:08:16.537Z,14.02
2022-07-26T04:10:51.494Z,13.99
2022-07-26T04:13:20.025Z,14.03
2022-07-26T04:15:47.811Z,14.00
2022-07-26T04:18:14.645Z,13.99
2022-07-26T04:20:42.833Z,13.96
2022-07-26T04:23:11.275Z,13.95
2022-07-26T04:25:40.901Z,13.99
2022-07-26T04:28:09.955Z,13.94
2022-07-26T04:30:37.130Z,13.95
2022-07-26T04:33:04.862Z,13.93
2022-07-26T04:35:33.311Z,13.96
2022-07-26T04:38:00.330Z,14.01
2022-07-26T04:40:29.254Z,13.94
2022-07-26T04:42:56.314Z,13.94
2022-07-26T04:45:23.521Z,13.96
2022-07-26T04:47:51.181Z,13.97
2022-07-26T04:50:21.764Z,13.94
2022-07-26T04:52:50.741Z,14.01
2022-07-26T04:55:18.937Z,13.96
2022-07-26T04:57:47.320Z,14.07
2022-07-26T05:00:21.831Z,13.95
2022-07-26T05:02:53.278Z,13.97
2022-07-26T05:05:20.949Z,14.02
2022-07-26T05:07:52.742Z,14.06
2022-07-26T05:10:21.946Z,14.04
2022-07-26T05:12:49.726Z,14.09
2022-07-26T05:15:16.685Z,14.05
2022-07-26T05:17:44.593Z,14.10
2022-07-26T05:20:16.056Z,14.06
2022-07-26T05:22:43.301Z,14.00
2022-07-26T05:25:11.026Z,14.03
2022-07-26T05:27:39.184Z,14.02
2022-07-26T05:30:07.100Z,13.98
2022-07-26T05:32:34.232Z,13.99
2022-07-26T05:35:01.081Z,13.98
2022-07-26T05:37:27.885Z,14.01
2022-07-26T05:39:55.247Z,13.99
2022-07-26T05:42:22.170Z,14.03
2022-07-26T05:44:48.972Z,13.99
2022-07-26T05:47:16.470Z,14.04
2022-07-26T05:49:43.640Z,14.00
2022-07-26T05:52:10.531Z,14.01
2022-07-26T05:54:37.465Z,14.09
2022-07-26T05:57:04.828Z,14.09
2022-07-26T05:59:32.365Z,14.14
2022-07-26T06:01:59.641Z,14.12
2022-07-26T06:04:27.756Z,14.23
2022-07-26T06:06:55.388Z,14.30
2022-07-26T06:09:25.456Z,14.30
2022-07-26T06:11:52.934Z,14.32
2022-07-26T06:14:20.706Z,14.26
2022-07-26T06:16:48.210Z,14.38
2022-07-26T06:19:15.330Z,14.27
2022-07-26T06:21:46.232Z,14.26
2022-07-26T06:24:13.623Z,14.23
2022-07-26T06:26:40.831Z,14.15
2022-07-26T06:29:07.978Z,14.13
2022-07-26T06:31:35.538Z,14.14
2022-07-26T06:34:02.477Z,14.09
2022-07-26T06:36:31.121Z,14.15
2022-07-26T06:38:58.690Z,14.08
2022-07-26T06:41:26.121Z,14.08
2022-07-26T06:43:53.161Z,13.95
2022-07-26T06:46:21.440Z,14.01
2022-07-26T06:48:52.846Z,14.04
2022-07-26T06:51:20.038Z,14.02
2022-07-26T06:53:46.983Z,14.06
2022-07-26T06:56:15.441Z,14.10
2022-07-26T06:58:43.384Z,14.09
2022-07-26T07:01:10.558Z,14.18
2022-07-26T07:03:37.634Z,14.25
2022-07-26T07:06:05.188Z,14.32
2022-07-26T07:08:32.251Z,14.49
2022-07-26T07:10:59.367Z,14.58
2022-07-26T07:13:28.669Z,14.73
2022-07-26T07:15:55.534Z,14.86
2022-07-26T07:18:23.045Z,14.96
2022-07-26T07:20:49.906Z,15.10
2022-07-26T07:23:16.832Z,15.27
2022-07-26T07:25:44.813Z,15.42
2022-07-26T07:28:12.015Z,15.57
2022-07-26T07:30:38.917Z,15.70
2022-07-26T07:33:07.443Z,15.85
2022-07-26T07:35:34.486Z,15.85
2022-07-26T07:38:03.024Z,15.88
2022-07-26T07:40:30.679Z,15.80
2022-07-26T07:42:58.671Z,15.92
2022-07-26T07:45:25.749Z,15.91
2022-07-26T07:47:53.027Z,15.86
2022-07-26T07:50:19.958Z,15.75
2022-07-26T07:52:47.635Z,15.66
2022-07-26T07:55:41.482Z,15.72
2022-07-26T07:58:02.238Z,15.74
2022-07-26T08:00:29.217Z,15.86
2022-07-26T08:02:56.211Z,15.82
2022-07-26T08:05:23.237Z,15.96
2022-07-26T08:07:50.287Z,16.08
2022-07-26T08:10:19.855Z,16.10
2022-07-26T08:12:47.135Z,16.20
2022-07-26T08:15:19.447Z,16.30
2022-07-26T08:17:53.738Z,16.52
2022-07-26T08:20:23.752Z,16.52
2022-07-26T08:22:52.928Z,16.57
2022-07-26T08:25:20.612Z,16.60
2022-07-26T08:28:00.476Z,16.67
2022-07-26T08:30:30.298Z,16.62
2022-07-26T08:32:57.385Z,16.57
2022-07-26T08:35:24.554Z,16.64
2022-07-26T08:37:51.679Z,16.64
2022-07-26T08:40:18.603Z,16.63
2022-07-26T08:42:54.100Z,16.63
2022-07-26T08:45:29.567Z,16.54
2022-07-26T08:48:18.318Z,16.61
2022-07-26T08:50:45.910Z,16.62
2022-07-26T08:53:13.328Z,16.70
2022-07-26T08:58:27.747Z,17.00
2022-07-26T09:01:13.076Z,17.20
2022-07-26T09:03:41.167Z,17.43
2022-07-26T09:06:28.047Z,17.85
2022-07-26T09:09:11.661Z,18.15
2022-07-26T09:11:38.721Z,18.28
2022-07-26T09:14:06.855Z,18.38
2022-07-26T09:16:39.065Z,18.41
2022-07-26T09:19:22.993Z,18.37
2022-07-26T09:21:51.553Z,18.36
2022-07-26T09:24:43.309Z,18.15
2022-07-26T09:27:18.741Z,18.06
2022-07-26T09:29:49.965Z,17.86
2022-07-26T09:32:27.311Z,17.77
2022-07-26T09:35:44.238Z,17.59
2022-07-26T09:37:59.189Z,17.50
2022-07-26T09:40:35.196Z,17.22
2022-07-26T09:43:07.434Z,17.16
2022-07-26T09:45:37.326Z,17.00
2022-07-26T09:48:04.871Z,16.99
2022-07-26T09:50:33.885Z,16.91
2022-07-26T09:53:12.749Z,16.89
2022-07-26T09:55:45.646Z,16.93
2022-07-26T09:58:14.692Z,16.95
2022-07-26T10:00:42.856Z,16.99
2022-07-26T10:03:09.760Z,17.10
2022-07-26T10:05:37.698Z,17.22
2022-07-26T10:08:06.025Z,17.26
2022-07-26T10:10:47.113Z,17.44
2022-07-26T10:13:15.436Z,17.76
2022-07-26T10:15:48.791Z,17.95
2022-07-26T10:18:38.074Z,18.14
2022-07-26T10:21:40.865Z,18.31
2022-07-26T10:24:26.832Z,18.51
2022-07-26T10:26:53.717Z,18.70
2022-07-26T10:29:26.840Z,18.79
2022-07-26T10:31:56.746Z,18.98
2022-07-26T10:34:39.514Z,19.10
2022-07-26T10:37:10.457Z,19.34
2022-07-26T10:39:39.208Z,19.47
2022-07-26T10:42:11.255Z,19.67
2022-07-26T10:44:42.171Z,19.84
2022-07-26T10:47:08.988Z,20.12
2022-07-26T10:49:54.649Z,20.29
2022-07-26T10:52:32.554Z,20.45
2022-07-26T10:54:59.322Z,20.33
2022-07-26T10:57:31.734Z,20.18
2022-07-26T11:00:01.339Z,20.06
2022-07-26T11:02:35.985Z,19.90
2022-07-26T11:05:14.006Z,19.84
2022-07-26T11:08:05.170Z,19.67
2022-07-26T11:10:47.013Z,19.71
2022-07-26T11:13:24.204Z,19.77
2022-07-26T11:16:06.693Z,19.62
2022-07-26T11:18:39.132Z,19.66
2022-07-26T11:21:12.171Z,19.67
2022-07-26T11:23:51.615Z,19.61
2022-07-26T11:26:21.796Z,19.69
2022-07-26T11:28:56.269Z,19.79
2022-07-26T11:31:55.521Z,19.75
2022-07-26T11:34:30.226Z,19.72
2022-07-26T11:36:59.417Z,19.75
2022-07-26T11:39:32.920Z,19.71
2022-07-26T11:42:07.042Z,19.57
2022-07-26T11:44:34.464Z,19.61
2022-07-26T11:47:12.723Z,19.53
2022-07-26T11:52:31.658Z,19.45
2022-07-26T11:54:58.958Z,19.47
2022-07-26T11:57:32.850Z,19.46
2022-07-26T12:00:01.137Z,19.55
2022-07-26T12:02:30.768Z,19.49
2022-07-26T12:05:22.617Z,19.46
2022-07-26T12:08:05.358Z,19.53
2022-07-26T12:10:32.688Z,19.44
2022-07-26T12:13:15.234Z,19.50
2022-07-26T12:15:50.863Z,19.40
2022-07-26T12:18:29.886Z,19.48
2022-07-26T12:21:07.845Z,19.66
2022-07-26T12:23:48.647Z,19.82
2022-07-26T12:26:25.284Z,19.80
2022-07-26T12:28:52.749Z,20.04
2022-07-26T12:31:31.475Z,20.02
2022-07-26T12:33:59.621Z,20.17
2022-07-26T12:36:29.483Z,20.29
2022-07-26T12:39:00.917Z,20.45
2022-07-26T12:41:40.530Z,20.47
2022-07-26T12:44:12.085Z,20.49
2022-07-26T12:46:39.785Z,20.61
2022-07-26T12:49:06.859Z,20.54
2022-07-26T12:51:34.324Z,20.50
2022-07-26T12:54:01.222Z,20.57
2022-07-26T12:56:28.154Z,20.63
2022-07-26T12:59:01.218Z,20.65
2022-07-26T13:01:30.671Z,20.54
2022-07-26T13:03:58.000Z,20.59
2022-07-26T13:06:25.051Z,20.67
2022-07-26T13:08:51.880Z,20.65
2022-07-26T13:11:18.747Z,20.69
2022-07-26T13:13:45.822Z,20.78
2022-07-26T13:16:12.717Z,20.91
2022-07-26T13:18:39.961Z,21.07
2022-07-26T13:21:07.252Z,21.07
2022-07-26T13:23:35.702Z,21.13
2022-07-26T13:26:04.187Z,20.98
2022-07-26T13:28:31.486Z,20.95
2022-07-26T13:30:58.959Z,20.91
2022-07-26T13:33:25.898Z,20.76
2022-07-26T13:35:53.063Z,20.69
2022-07-26T13:38:20.432Z,20.69
2022-07-26T13:40:47.574Z,20.60
2022-07-26T13:43:14.968Z,20.71
2022-07-26T13:45:42.146Z,20.68
2022-07-26T13:48:09.315Z,20.69
2022-07-26T13:50:36.216Z,20.69
2022-07-26T13:53:04.665Z,20.67
2022-07-26T13:55:31.718Z,20.65
2022-07-26T13:57:58.697Z,20.67
2022-07-26T14:00:27.460Z,20.60
2022-07-26T14:02:56.208Z,20.59
2022-07-26T14:05:24.396Z,20.59
2022-07-26T14:07:51.509Z,20.45
2022-07-26T14:10:19.762Z,20.44
2022-07-26T14:12:47.955Z,20.40
2022-07-26T14:15:21.728Z,20.53
2022-07-26T14:17:50.494Z,20.51
2022-07-26T14:20:17.525Z,20.51
2022-07-26T14:22:45.279Z,20.57
2022-07-26T14:25:12.601Z,20.47
2022-07-26T14:27:39.743Z,20.58
2022-07-26T14:30:10.448Z,20.66
2022-07-26T14:32:41.783Z,20.71
2022-07-26T14:35:10.669Z,20.79
2022-07-26T14:37:42.177Z,20.86
2022-07-26T14:40:15.875Z,21.08
2022-07-26T14:42:43.189Z,21.18
2022-07-26T14:45:11.002Z,21.28
2022-07-26T14:47:38.172Z,21.18
2022-07-26T14:50:07.860Z,21.30
2022-07-26T14:52:41.284Z,21.27
2022-07-26T14:55:09.059Z,21.07
2022-07-26T14:57:38.168Z,21.22
2022-07-26T15:00:10.591Z,21.23
2022-07-26T15:02:56.355Z,21.33
2022-07-26T15:05:25.232Z,21.20
2022-07-26T15:07:52.041Z,21.15
2022-07-26T15:10:29.298Z,21.16
2022-07-26T15:13:03.974Z,21.25
2022-07-26T15:15:31.101Z,21.28
2022-07-26T15:17:58.634Z,21.29
2022-07-26T15:20:25.662Z,21.28
2022-07-26T15:22:56.570Z,21.26
2022-07-26T15:25:24.453Z,21.31
2022-07-26T15:27:52.080Z,21.38
2022-07-26T15:30:19.813Z,21.39
2022-07-26T15:32:46.964Z,21.27
2022-07-26T15:35:15.051Z,21.11
2022-07-26T15:37:43.924Z,21.00
2022-07-26T15:40:12.684Z,21.02
2022-07-26T15:42:45.707Z,21.08
2022-07-26T15:45:13.773Z,21.01
2022-07-26T15:48:05.717Z,20.93
2022-07-26T15:50:28.785Z,20.93
2022-07-26T15:52:55.624Z,20.98
2022-07-26T15:55:22.494Z,20.94
2022-07-26T15:57:49.363Z,21.02
2022-07-26T16:00:17.440Z,20.93
2022-07-26T16:02:44.726Z,20.86
2022-07-26T16:05:11.906Z,20.90
2022-07-26T16:07:41.760Z,20.83
2022-07-26T16:10:12.365Z,20.80
2022-07-26T16:12:41.370Z,20.72
2022-07-26T16:15:11.039Z,20.53
2022-07-26T16:17:39.337Z,20.65
2022-07-26T16:20:07.381Z,20.50
2022-07-26T16:22:35.429Z,20.53
2022-07-26T16:25:02.318Z,20.53
2022-07-26T16:27:29.113Z,20.42
2022-07-26T16:29:55.997Z,20.49
2022-07-26T16:32:22.910Z,20.44
2022-07-26T16:34:50.140Z,20.50
2022-07-26T16:37:17.039Z,20.45
2022-07-26T16:39:43.903Z,20.49
2022-07-26T16:42:10.679Z,20.48
2022-07-26T16:44:38.143Z,20.39
2022-07-26T16:47:05.184Z,20.47
2022-07-26T16:49:32.290Z,20.47
2022-07-26T16:51:59.283Z,20.49
2022-07-26T16:54:26.553Z,20.44
2022-07-26T16:56:53.489Z,20.49
2022-07-26T16:59:20.405Z,20.48
2022-07-26T17:01:47.576Z,20.32
2022-07-26T17:04:14.490Z,20.23
2022-07-26T17:06:41.288Z,20.21
2022-07-26T17:09:15.942Z,20.23
2022-07-26T17:11:43.154Z,20.19
2022-07-26T17:14:10.968Z,20.18
2022-07-26T17:16:37.981Z,20.15
2022-07-26T17:19:04.838Z,20.01
2022-07-26T17:21:32.068Z,20.00
2022-07-26T17:24:01.602Z,19.96
2022-07-26T17:26:32.479Z,19.84
2022-07-26T17:29:03.318Z,19.81
2022-07-26T17:31:30.443Z,19.85
2022-07-26T17:33:57.281Z,19.79
2022-07-26T17:36:30.304Z,19.75
2022-07-26T17:38:58.680Z,19.73
2022-07-26T17:41:32.667Z,19.72
2022-07-26T17:44:03.271Z,19.71
2022-07-26T17:46:32.849Z,19.63
2022-07-26T17:49:00.625Z,19.61
2022-07-26T17:51:27.604Z,19.54
2022-07-26T17:53:54.660Z,19.49
2022-07-26T17:56:21.517Z,19.50
2022-07-26T17:58:48.329Z,19.43
2022-07-26T18:01:15.702Z,19.41
2022-07-26T18:03:42.676Z,19.37
2022-07-26T18:06:09.947Z,19.36
2022-07-26T18:08:37.000Z,19.31
2022-07-26T18:11:05.255Z,19.33
2022-07-26T18:13:32.159Z,19.24
2022-07-26T18:16:04.127Z,19.29
2022-07-26T18:18:32.793Z,19.23
2022-07-26T18:21:00.035Z,19.21
2022-07-26T18:23:26.882Z,19.09
2022-07-26T18:25:54.155Z,19.02
2022-07-26T18:28:21.043Z,18.92
2022-07-26T18:30:47.904Z,18.79
2022-07-26T18:33:14.821Z,18.81
2022-07-26T18:35:42.001Z,18.75
2022-07-26T18:38:09.267Z,18.67
2022-07-26T18:40:36.309Z,18.65
2022-07-26T18:43:03.681Z,18.61
2022-07-26T18:45:30.672Z,18.48
2022-07-26T18:47:57.705Z,18.43
2022-07-26T18:50:26.922Z,18.37
2022-07-26T18:52:58.173Z,18.32
2022-07-26T18:55:25.301Z,18.21
2022-07-26T18:57:52.204Z,18.18
2022-07-26T19:00:21.319Z,18.11
2022-07-26T19:02:48.263Z,18.02
2022-07-26T19:05:16.839Z,18.01
2022-07-26T19:07:44.851Z,17.95
2022-07-26T19:10:13.181Z,17.93
2022-07-26T19:12:40.508Z,17.84
2022-07-26T19:15:08.560Z,17.77
2022-07-26T19:17:36.180Z,17.75
2022-07-26T19:20:05.368Z,17.60
2022-07-26T19:22:32.283Z,17.57
2022-07-26T19:24:59.231Z,17.53
2022-07-26T19:27:27.991Z,17.50
2022-07-26T19:29:57.129Z,17.44
2022-07-26T19:32:31.710Z,17.39
2022-07-26T19:35:00.917Z,17.31
2022-07-26T19:37:27.751Z,17.24
2022-07-26T19:39:56.180Z,17.18
2022-07-26T19:42:23.031Z,17.06
2022-07-26T19:44:51.106Z,17.00
2022-07-26T19:47:18.014Z,16.92
2022-07-26T19:49:44.871Z,16.85
2022-07-26T19:52:12.132Z,16.79
2022-07-26T19:54:39.688Z,16.71
2022-07-26T19:57:07.717Z,16.65
2022-07-26T19:59:34.723Z,16.48
2022-07-26T20:02:02.493Z,16.49
2022-07-26T20:04:29.764Z,16.41
2022-07-26T20:06:56.669Z,16.28
2022-07-26T20:09:23.969Z,16.24
2022-07-26T20:11:51.152Z,16.16
2022-07-26T20:14:20.739Z,16.04
2022-07-26T20:16:52.950Z,15.96
2022-07-26T20:19:24.548Z,15.90
2022-07-26T20:21:51.556Z,15.79
2022-07-26T20:24:19.360Z,15.73
2022-07-26T20:26:46.308Z,15.65
2022-07-26T20:29:13.484Z,15.62
2022-07-26T20:31:40.882Z,15.50
2022-07-26T20:34:07.827Z,15.47
2022-07-26T20:36:34.748Z,15.41
2022-07-26T20:39:02.618Z,15.31
2022-07-26T20:41:34.021Z,15.29
2022-07-26T20:44:01.084Z,15.25
2022-07-26T20:46:28.288Z,15.19
2022-07-26T20:48:55.376Z,15.10
2022-07-26T20:51:22.492Z,15.08
2022-07-26T20:53:49.945Z,15.01
2022-07-26T20:56:16.767Z,14.97
2022-07-26T20:58:43.576Z,14.94
2022-07-26T21:01:12.518Z,14.89
2022-07-26T21:03:39.486Z,14.84
2022-07-26T21:06:06.446Z,14.77
2022-07-26T21:08:33.337Z,14.73
2022-07-26T21:11:00.692Z,14.70
2022-07-26T21:13:27.666Z,14.64
2022-07-26T21:15:54.646Z,14.60
2022-07-26T21:18:21.915Z,14.53
2022-07-26T21:20:49.095Z,14.51
2022-07-26T21:23:18.373Z,14.42
2022-07-26T21:25:45.472Z,14.40
2022-07-26T21:28:12.785Z,14.32
2022-07-26T21:30:39.641Z,14.31
2022-07-26T21:33:06.607Z,14.23
2022-07-26T21:35:33.564Z,14.23
2022-07-26T21:38:00.410Z,14.18
2022-07-26T21:40:27.473Z,14.11
2022-07-26T21:42:54.317Z,14.08
2022-07-26T21:45:21.201Z,14.03
2022-07-26T21:47:48.196Z,13.95
2022-07-26T21:50:15.020Z,13.89
2022-07-26T21:52:41.894Z,13.83
2022-07-26T21:55:09.269Z,13.76
2022-07-26T21:57:36.136Z,13.71
2022-07-26T22:00:06.277Z,13.68
2022-07-26T22:02:33.170Z,13.59
2022-07-26T22:05:01.294Z,13.62
2022-07-26T22:07:28.138Z,13.55
2022-07-26T22:09:55.043Z,13.49
2022-07-26T22:12:21.867Z,13.43
2022-07-26T22:14:48.669Z,13.37
2022-07-26T22:17:15.676Z,13.31
2022-07-26T22:19:42.487Z,13.26
2022-07-26T22:22:09.336Z,13.18
2022-07-26T22:24:36.150Z,13.14
2022-07-26T22:27:02.983Z,13.14
2022-07-26T22:29:38.827Z,13.06
2022-07-26T22:32:07.200Z,13.04
2022-07-26T22:34:34.162Z,13.01
2022-07-26T22:37:01.137Z,12.96
2022-07-26T22:39:27.957Z,12.89
2022-07-26T22:42:14.335Z,12.88
2022-07-26T22:44:41.674Z,12.83
2022-07-26T22:47:08.516Z,12.79
2022-07-26T22:49:35.532Z,12.72
2022-07-26T22:52:02.416Z,12.70
2022-07-26T22:54:29.290Z,12.72
2022-07-26T22:56:56.205Z,12.68
2022-07-26T22:59:25.524Z,12.59
2022-07-26T23:01:52.389Z,12.55
2022-07-26T23:04:19.317Z,12.54
2022-07-26T23:06:46.543Z,12.52
2022-07-26T23:09:14.497Z,12.43
2022-07-26T23:11:41.751Z,12.41
2022-07-26T23:14:08.579Z,12.41
2022-07-26T23:16:35.577Z,12.28
2022-07-26T23:19:02.799Z,12.24
2022-07-26T23:21:29.813Z,12.19
2022-07-26T23:23:57.300Z,12.21
2022-07-26T23:26:24.178Z,12.19
2022-07-26T23:28:51.754Z,12.18
2022-07-26T23:31:18.968Z,12.12
2022-07-26T23:33:52.366Z,12.12
2022-07-26T23:36:28.407Z,12.07
2022-07-26T23:38:58.360Z,12.03
2022-07-26T23:41:26.699Z,11.98
2022-07-26T23:43:54.515Z,11.91
2022-07-26T23:46:22.061Z,11.89
2022-07-26T23:48:49.279Z,11.81
2022-07-26T23:51:16.686Z,11.76
2022-07-26T23:53:43.801Z,11.70
2022-07-26T23:56:10.647Z,11.74
2022-07-26T23:58:37.852Z,11.73
